sensor_id;sensor_type;location;lat;lon;timestamp;pressure;altitude;pressure_sealevel;temperature;humidity
35758;BME280;21879;50.110;18.900;2023-04-06T00:00:36;99039.41;;;1.35;51.12
35758;BME280;21879;50.110;18.900;2023-04-06T00:11:02;99036.15;;;1.34;51.37
35758;BME280;21879;50.110;18.900;2023-04-06T00:21:28;99039.59;;;1.14;51.42
35758;BME280;21879;50.110;18.900;2023-04-06T00:31:55;99034.59;;;1.08;51.40
35758;BME280;21879;50.110;18.900;2023-04-06T00:42:22;99032.09;;;1.05;51.39
35758;BME280;21879;50.110;18.900;2023-04-06T00:52:50;99028.09;;;1.08;51.76
35758;BME280;21879;50.110;18.900;2023-04-06T01:03:16;99029.71;;;1.16;51.79
35758;BME280;21879;50.110;18.900;2023-04-06T01:13:42;99027.99;;;1.21;51.83
35758;BME280;21879;50.110;18.900;2023-04-06T01:24:09;99026.49;;;1.33;51.36
35758;BME280;21879;50.110;18.900;2023-04-06T01:34:35;99021.91;;;1.39;51.73
35758;BME280;21879;50.110;18.900;2023-04-06T01:45:02;99021.16;;;1.48;51.67
35758;BME280;21879;50.110;18.900;2023-04-06T01:55:28;99014.21;;;1.34;51.88
35758;BME280;21879;50.110;18.900;2023-04-06T02:05:54;99011.95;;;1.34;52.02
35758;BME280;21879;50.110;18.900;2023-04-06T02:16:20;99012.65;;;1.28;51.93
35758;BME280;21879;50.110;18.900;2023-04-06T02:26:46;99008.91;;;1.24;52.28
35758;BME280;21879;50.110;18.900;2023-04-06T02:37:12;99006.35;;;1.03;51.86
35758;BME280;21879;50.110;18.900;2023-04-06T02:47:38;99003.43;;;0.87;52.01
35758;BME280;21879;50.110;18.900;2023-04-06T02:58:04;99010.10;;;0.78;52.94
35758;BME280;21879;50.110;18.900;2023-04-06T03:08:30;99016.54;;;0.75;53.28
35758;BME280;21879;50.110;18.900;2023-04-06T03:18:56;99016.44;;;0.62;53.60
35758;BME280;21879;50.110;18.900;2023-04-06T03:29:22;99019.16;;;0.62;53.44
35758;BME280;21879;50.110;18.900;2023-04-06T03:39:48;99022.23;;;0.72;53.61
35758;BME280;21879;50.110;18.900;2023-04-06T03:50:15;99027.08;;;0.78;53.72
35758;BME280;21879;50.110;18.900;2023-04-06T04:00:49;99029.20;;;0.51;53.85
35758;BME280;21879;50.110;18.900;2023-04-06T04:11:15;99035.83;;;0.44;54.02
35758;BME280;21879;50.110;18.900;2023-04-06T04:21:45;99036.34;;;0.45;54.45
35758;BME280;21879;50.110;18.900;2023-04-06T04:32:11;99038.95;;;0.32;53.95
35758;BME280;21879;50.110;18.900;2023-04-06T04:42:37;99038.63;;;0.28;54.35
35758;BME280;21879;50.110;18.900;2023-04-06T04:53:03;99042.31;;;0.25;54.57
35758;BME280;21879;50.110;18.900;2023-04-06T05:03:31;99048.81;;;0.16;54.53
35758;BME280;21879;50.110;18.900;2023-04-06T05:13:58;99040.27;;;0.17;55.01
35758;BME280;21879;50.110;18.900;2023-04-06T05:24:26;99038.08;;;0.27;55.14
35758;BME280;21879;50.110;18.900;2023-04-06T05:34:51;99036.45;;;0.39;55.70
35758;BME280;21879;50.110;18.900;2023-04-06T05:45:17;99031.67;;;0.68;56.39
35758;BME280;21879;50.110;18.900;2023-04-06T05:55:43;99029.74;;;0.96;56.95
35758;BME280;21879;50.110;18.900;2023-04-06T06:06:09;99033.33;;;1.32;57.52
35758;BME280;21879;50.110;18.900;2023-04-06T06:16:35;99026.20;;;1.78;57.50
35758;BME280;21879;50.110;18.900;2023-04-06T06:27:01;99015.25;;;2.26;56.25
35758;BME280;21879;50.110;18.900;2023-04-06T06:37:27;99010.20;;;2.41;54.36
35758;BME280;21879;50.110;18.900;2023-04-06T06:47:54;99017.94;;;2.47;53.50
35758;BME280;21879;50.110;18.900;2023-04-06T06:58:20;99018.25;;;2.59;53.20
35758;BME280;21879;50.110;18.900;2023-04-06T07:08:46;99022.10;;;2.88;52.45
35758;BME280;21879;50.110;18.900;2023-04-06T07:19:12;99026.80;;;2.90;50.99
35758;BME280;21879;50.110;18.900;2023-04-06T07:29:38;99032.23;;;2.88;50.83
35758;BME280;21879;50.110;18.900;2023-04-06T07:40:06;99033.84;;;2.71;49.95
35758;BME280;21879;50.110;18.900;2023-04-06T07:50:32;99027.83;;;2.46;49.67
35758;BME280;21879;50.110;18.900;2023-04-06T08:00:58;99021.80;;;2.83;50.14
35758;BME280;21879;50.110;18.900;2023-04-06T08:11:23;99024.08;;;3.11;49.36
35758;BME280;21879;50.110;18.900;2023-04-06T08:21:51;99013.45;;;3.33;49.21
35758;BME280;21879;50.110;18.900;2023-04-06T08:32:17;99000.73;;;3.55;49.35
35758;BME280;21879;50.110;18.900;2023-04-06T08:42:49;98996.02;;;3.75;48.65
35758;BME280;21879;50.110;18.900;2023-04-06T08:53:17;98988.61;;;3.74;48.32
35758;BME280;21879;50.110;18.900;2023-04-06T09:03:48;98991.95;;;3.62;47.69
35758;BME280;21879;50.110;18.900;2023-04-06T09:14:15;98988.24;;;3.51;48.17
35758;BME280;21879;50.110;18.900;2023-04-06T09:24:46;98990.15;;;3.43;47.60
35758;BME280;21879;50.110;18.900;2023-04-06T09:35:12;98982.96;;;3.30;48.06
35758;BME280;21879;50.110;18.900;2023-04-06T09:45:39;98966.90;;;3.49;48.56
35758;BME280;21879;50.110;18.900;2023-04-06T09:56:09;98957.11;;;3.65;48.65
35758;BME280;21879;50.110;18.900;2023-04-06T10:06:37;98954.51;;;3.64;48.29
35758;BME280;21879;50.110;18.900;2023-04-06T10:17:05;98943.89;;;3.82;48.58
35758;BME280;21879;50.110;18.900;2023-04-06T10:27:32;98931.73;;;3.92;47.80
35758;BME280;21879;50.110;18.900;2023-04-06T10:38:04;98928.79;;;3.92;47.86
35758;BME280;21879;50.110;18.900;2023-04-06T10:48:40;98909.08;;;4.14;48.46
35758;BME280;21879;50.110;18.900;2023-04-06T10:59:07;98906.48;;;4.39;47.86
35758;BME280;21879;50.110;18.900;2023-04-06T11:09:32;98905.98;;;4.39;47.82
35758;BME280;21879;50.110;18.900;2023-04-06T11:20:01;98900.29;;;4.31;47.21
35758;BME280;21879;50.110;18.900;2023-04-06T11:30:28;98901.05;;;4.35;47.69
35758;BME280;21879;50.110;18.900;2023-04-06T11:40:55;98895.13;;;4.39;47.12
35758;BME280;21879;50.110;18.900;2023-04-06T11:51:24;98885.54;;;4.34;47.04
35758;BME280;21879;50.110;18.900;2023-04-06T12:01:50;98877.25;;;4.41;47.06
35758;BME280;21879;50.110;18.900;2023-04-06T12:12:17;98875.16;;;4.51;47.27
35758;BME280;21879;50.110;18.900;2023-04-06T12:22:44;98872.45;;;4.53;46.92
35758;BME280;21879;50.110;18.900;2023-04-06T12:33:10;98862.39;;;4.48;47.00
35758;BME280;21879;50.110;18.900;2023-04-06T12:43:35;98853.36;;;4.53;46.98
35758;BME280;21879;50.110;18.900;2023-04-06T12:54:01;98849.77;;;4.56;47.01
35758;BME280;21879;50.110;18.900;2023-04-06T13:04:27;98840.27;;;4.44;46.59
35758;BME280;21879;50.110;18.900;2023-04-06T13:14:53;98847.45;;;4.40;47.33
35758;BME280;21879;50.110;18.900;2023-04-06T13:25:19;98840.48;;;4.36;47.65
35758;BME280;21879;50.110;18.900;2023-04-06T13:35:47;98842.27;;;4.21;48.57
35758;BME280;21879;50.110;18.900;2023-04-06T13:46:13;98841.39;;;4.00;49.97
35758;BME280;21879;50.110;18.900;2023-04-06T13:56:39;98834.30;;;3.90;51.80
35758;BME280;21879;50.110;18.900;2023-04-06T14:07:05;98832.85;;;3.77;52.95
35758;BME280;21879;50.110;18.900;2023-04-06T14:17:31;98834.60;;;3.70;54.20
35758;BME280;21879;50.110;18.900;2023-04-06T14:27:57;98833.61;;;3.81;55.50
35758;BME280;21879;50.110;18.900;2023-04-06T14:38:23;98831.27;;;3.84;56.16
35758;BME280;21879;50.110;18.900;2023-04-06T14:48:50;98825.61;;;3.85;56.09
35758;BME280;21879;50.110;18.900;2023-04-06T14:59:16;98826.29;;;3.85;56.32
35758;BME280;21879;50.110;18.900;2023-04-06T15:09:41;98826.77;;;3.91;56.27
35758;BME280;21879;50.110;18.900;2023-04-06T15:20:09;98814.30;;;3.87;55.73
35758;BME280;21879;50.110;18.900;2023-04-06T15:30:36;98818.29;;;3.80;56.14
35758;BME280;21879;50.110;18.900;2023-04-06T15:41:02;98823.75;;;3.77;56.07
35758;BME280;21879;50.110;18.900;2023-04-06T15:51:28;98831.77;;;3.74;56.60
35758;BME280;21879;50.110;18.900;2023-04-06T16:01:55;98833.42;;;3.62;56.80
35758;BME280;21879;50.110;18.900;2023-04-06T16:12:21;98827.59;;;3.55;56.76
35758;BME280;21879;50.110;18.900;2023-04-06T16:22:47;98827.02;;;3.61;57.14
35758;BME280;21879;50.110;18.900;2023-04-06T16:33:14;98829.94;;;3.78;57.33
35758;BME280;21879;50.110;18.900;2023-04-06T16:43:42;98831.39;;;3.72;56.95
35758;BME280;21879;50.110;18.900;2023-04-06T16:54:09;98837.02;;;3.69;56.94
35758;BME280;21879;50.110;18.900;2023-04-06T17:04:34;98839.60;;;3.70;56.87
35758;BME280;21879;50.110;18.900;2023-04-06T17:15:01;98839.78;;;3.71;57.57
35758;BME280;21879;50.110;18.900;2023-04-06T17:25:27;98840.48;;;3.62;57.83
35758;BME280;21879;50.110;18.900;2023-04-06T17:35:53;98851.83;;;3.54;58.50
35758;BME280;21879;50.110;18.900;2023-04-06T17:46:20;98865.68;;;3.51;59.16
35758;BME280;21879;50.110;18.900;2023-04-06T17:56:46;98869.26;;;3.49;59.64
35758;BME280;21879;50.110;18.900;2023-04-06T18:07:12;98859.55;;;3.46;60.03
35758;BME280;21879;50.110;18.900;2023-04-06T18:17:38;98864.16;;;3.36;60.62
35758;BME280;21879;50.110;18.900;2023-04-06T18:28:04;98857.73;;;3.33;61.03
35758;BME280;21879;50.110;18.900;2023-04-06T18:38:30;98853.63;;;3.34;61.32
35758;BME280;21879;50.110;18.900;2023-04-06T18:48:56;98850.60;;;3.29;61.49
35758;BME280;21879;50.110;18.900;2023-04-06T18:59:22;98853.29;;;3.34;61.78
35758;BME280;21879;50.110;18.900;2023-04-06T19:09:49;98853.11;;;3.34;62.24
35758;BME280;21879;50.110;18.900;2023-04-06T19:20:15;98850.11;;;3.46;62.75
35758;BME280;21879;50.110;18.900;2023-04-06T19:30:41;98848.14;;;3.60;62.84
35758;BME280;21879;50.110;18.900;2023-04-06T19:41:08;98838.87;;;3.68;63.01
35758;BME280;21879;50.110;18.900;2023-04-06T19:51:34;98827.83;;;3.74;63.11
35758;BME280;21879;50.110;18.900;2023-04-06T20:02:00;98821.64;;;3.75;63.07
35758;BME280;21879;50.110;18.900;2023-04-06T20:12:26;98816.95;;;3.81;63.14
35758;BME280;21879;50.110;18.900;2023-04-06T20:22:52;98816.89;;;3.78;63.14
35758;BME280;21879;50.110;18.900;2023-04-06T20:33:18;98814.59;;;3.84;63.51
35758;BME280;21879;50.110;18.900;2023-04-06T20:43:45;98807.80;;;3.79;63.39
35758;BME280;21879;50.110;18.900;2023-04-06T20:54:11;98798.30;;;3.69;63.36
35758;BME280;21879;50.110;18.900;2023-04-06T21:04:37;98789.57;;;3.53;63.64
35758;BME280;21879;50.110;18.900;2023-04-06T21:15:03;98781.15;;;3.36;63.75
35758;BME280;21879;50.110;18.900;2023-04-06T21:25:29;98772.52;;;3.10;64.33
35758;BME280;21879;50.110;18.900;2023-04-06T21:35:55;98765.85;;;2.95;65.20
35758;BME280;21879;50.110;18.900;2023-04-06T21:46:21;98763.67;;;2.81;65.43
35758;BME280;21879;50.110;18.900;2023-04-06T21:56:47;98756.66;;;2.68;65.79
35758;BME280;21879;50.110;18.900;2023-04-06T22:07:13;98749.27;;;2.67;66.22
35758;BME280;21879;50.110;18.900;2023-04-06T22:17:39;98742.20;;;2.73;66.68
35758;BME280;21879;50.110;18.900;2023-04-06T22:28:05;98730.17;;;2.74;66.73
35758;BME280;21879;50.110;18.900;2023-04-06T22:38:31;98727.88;;;2.78;67.11
35758;BME280;21879;50.110;18.900;2023-04-06T22:48:57;98715.95;;;2.75;66.89
35758;BME280;21879;50.110;18.900;2023-04-06T22:59:23;98715.70;;;2.78;67.28
35758;BME280;21879;50.110;18.900;2023-04-06T23:09:49;98710.92;;;2.80;67.40
35758;BME280;21879;50.110;18.900;2023-04-06T23:20:14;98702.41;;;2.84;67.64
35758;BME280;21879;50.110;18.900;2023-04-06T23:30:40;98693.82;;;2.92;67.59
35758;BME280;21879;50.110;18.900;2023-04-06T23:41:06;98681.73;;;3.05;67.38
35758;BME280;21879;50.110;18.900;2023-04-06T23:51:32;98677.14;;;3.17;66.92
